sensor_id;sensor_type;location;lat;lon;timestamp;P1;durP1;ratioP1;P2;durP2;ratioP2
16673;SDS011;8450;52.654;10.326;2023-12-20T00:01:28;16.67;;;7.63;;
16673;SDS011;8450;52.654;10.326;2023-12-20T00:03:54;13.93;;;6.87;;
16673;SDS011;8450;52.654;10.326;2023-12-20T00:06:19;16.90;;;6.67;;
16673;SDS011;8450;52.654;10.326;2023-12-20T00:08:45;9.87;;;6.60;;
16673;SDS011;8450;52.654;10.326;2023-12-20T00:11:11;13.17;;;6.97;;
16673;SDS011;8450;52.654;10.326;2023-12-20T00:13:36;12.37;;;6.40;;
16673;SDS011;8450;52.654;10.326;2023-12-20T00:16:02;11.27;;;5.33;;
16673;SDS011;8450;52.654;10.326;2023-12-20T00:18:28;4.77;;;3.10;;
16673;SDS011;8450;52.654;10.326;2023-12-20T00:20:53;13.83;;;4.90;;
16673;SDS011;8450;52.654;10.326;2023-12-20T00:23:19;13.77;;;4.50;;
16673;SDS011;8450;52.654;10.326;2023-12-20T00:25:44;8.70;;;3.73;;
16673;SDS011;8450;52.654;10.326;2023-12-20T00:28:10;11.73;;;4.90;;
16673;SDS011;8450;52.654;10.326;2023-12-20T00:30:36;15.17;;;4.03;;
16673;SDS011;8450;52.654;10.326;2023-12-20T00:33:01;13.63;;;3.80;;
16673;SDS011;8450;52.654;10.326;2023-12-20T00:35:27;9.53;;;4.27;;
16673;SDS011;8450;52.654;10.326;2023-12-20T00:37:53;7.27;;;3.13;;
16673;SDS011;8450;52.654;10.326;2023-12-20T00:40:18;9.03;;;3.80;;
16673;SDS011;8450;52.654;10.326;2023-12-20T00:42:44;12.83;;;4.03;;
16673;SDS011;8450;52.654;10.326;2023-12-20T00:45:11;12.20;;;3.97;;
16673;SDS011;8450;52.654;10.326;2023-12-20T00:47:37;10.63;;;3.97;;
16673;SDS011;8450;52.654;10.326;2023-12-20T00:50:03;11.27;;;3.97;;
16673;SDS011;8450;52.654;10.326;2023-12-20T00:52:29;6.40;;;3.33;;
16673;SDS011;8450;52.654;10.326;2023-12-20T00:54:54;15.97;;;4.27;;
16673;SDS011;8450;52.654;10.326;2023-12-20T00:57:20;9.60;;;4.00;;
16673;SDS011;8450;52.654;10.326;2023-12-20T00:59:45;12.17;;;3.37;;
16673;SDS011;8450;52.654;10.326;2023-12-20T01:02:11;14.70;;;3.63;;
16673;SDS011;8450;52.654;10.326;2023-12-20T01:04:36;8.73;;;3.47;;
16673;SDS011;8450;52.654;10.326;2023-12-20T01:07:02;8.43;;;3.97;;
16673;SDS011;8450;52.654;10.326;2023-12-20T01:09:27;14.03;;;3.30;;
16673;SDS011;8450;52.654;10.326;2023-12-20T01:11:53;18.70;;;3.60;;
16673;SDS011;8450;52.654;10.326;2023-12-20T01:14:19;10.20;;;3.47;;
16673;SDS011;8450;52.654;10.326;2023-12-20T01:16:44;14.00;;;3.50;;
16673;SDS011;8450;52.654;10.326;2023-12-20T01:19:10;10.77;;;3.00;;
16673;SDS011;8450;52.654;10.326;2023-12-20T01:21:35;6.60;;;3.23;;
16673;SDS011;8450;52.654;10.326;2023-12-20T01:24:01;10.17;;;3.60;;
16673;SDS011;8450;52.654;10.326;2023-12-20T01:26:27;8.57;;;3.03;;
16673;SDS011;8450;52.654;10.326;2023-12-20T01:28:52;14.97;;;4.00;;
16673;SDS011;8450;52.654;10.326;2023-12-20T01:31:18;6.70;;;3.00;;
16673;SDS011;8450;52.654;10.326;2023-12-20T01:33:44;8.40;;;3.20;;
16673;SDS011;8450;52.654;10.326;2023-12-20T01:36:09;10.60;;;3.83;;
16673;SDS011;8450;52.654;10.326;2023-12-20T01:38:36;9.77;;;3.97;;
16673;SDS011;8450;52.654;10.326;2023-12-20T01:41:01;13.97;;;4.13;;
16673;SDS011;8450;52.654;10.326;2023-12-20T01:43:27;12.67;;;3.30;;
16673;SDS011;8450;52.654;10.326;2023-12-20T01:45:53;10.50;;;3.00;;
16673;SDS011;8450;52.654;10.326;2023-12-20T01:48:24;17.73;;;3.50;;
16673;SDS011;8450;52.654;10.326;2023-12-20T01:50:51;14.07;;;3.70;;
16673;SDS011;8450;52.654;10.326;2023-12-20T01:53:17;14.20;;;4.17;;
16673;SDS011;8450;52.654;10.326;2023-12-20T01:55:46;14.97;;;3.50;;
16673;SDS011;8450;52.654;10.326;2023-12-20T01:58:13;14.37;;;3.30;;
16673;SDS011;8450;52.654;10.326;2023-12-20T02:00:39;18.43;;;3.53;;
16673;SDS011;8450;52.654;10.326;2023-12-20T02:03:05;13.53;;;3.40;;
16673;SDS011;8450;52.654;10.326;2023-12-20T02:05:31;13.23;;;3.70;;
16673;SDS011;8450;52.654;10.326;2023-12-20T02:07:59;9.03;;;2.90;;
16673;SDS011;8450;52.654;10.326;2023-12-20T02:10:24;11.63;;;3.87;;
16673;SDS011;8450;52.654;10.326;2023-12-20T02:12:51;16.87;;;3.77;;
16673;SDS011;8450;52.654;10.326;2023-12-20T02:15:16;9.03;;;3.57;;
16673;SDS011;8450;52.654;10.326;2023-12-20T02:17:42;13.90;;;3.80;;
16673;SDS011;8450;52.654;10.326;2023-12-20T02:20:08;9.77;;;2.70;;
16673;SDS011;8450;52.654;10.326;2023-12-20T02:22:34;8.57;;;3.30;;
16673;SDS011;8450;52.654;10.326;2023-12-20T02:25:00;15.40;;;3.63;;
16673;SDS011;8450;52.654;10.326;2023-12-20T02:27:25;15.10;;;3.50;;
16673;SDS011;8450;52.654;10.326;2023-12-20T02:29:52;7.57;;;3.17;;
16673;SDS011;8450;52.654;10.326;2023-12-20T02:32:18;8.90;;;3.27;;
16673;SDS011;8450;52.654;10.326;2023-12-20T02:34:44;9.93;;;4.00;;
16673;SDS011;8450;52.654;10.326;2023-12-20T02:37:10;11.93;;;4.10;;
16673;SDS011;8450;52.654;10.326;2023-12-20T02:39:36;10.90;;;3.50;;
16673;SDS011;8450;52.654;10.326;2023-12-20T02:42:02;10.93;;;3.80;;
16673;SDS011;8450;52.654;10.326;2023-12-20T02:44:27;13.20;;;4.30;;
16673;SDS011;8450;52.654;10.326;2023-12-20T02:46:53;15.83;;;4.97;;
16673;SDS011;8450;52.654;10.326;2023-12-20T02:49:18;14.80;;;4.00;;
16673;SDS011;8450;52.654;10.326;2023-12-20T02:51:44;10.77;;;4.17;;
16673;SDS011;8450;52.654;10.326;2023-12-20T02:54:09;14.87;;;4.30;;
16673;SDS011;8450;52.654;10.326;2023-12-20T02:56:35;15.27;;;4.27;;
16673;SDS011;8450;52.654;10.326;2023-12-20T02:59:01;7.83;;;3.77;;
16673;SDS011;8450;52.654;10.326;2023-12-20T03:01:27;15.73;;;5.00;;
16673;SDS011;8450;52.654;10.326;2023-12-20T03:03:54;12.37;;;4.47;;
16673;SDS011;8450;52.654;10.326;2023-12-20T03:06:19;12.60;;;4.37;;
16673;SDS011;8450;52.654;10.326;2023-12-20T03:08:45;8.80;;;3.90;;
16673;SDS011;8450;52.654;10.326;2023-12-20T03:11:11;16.07;;;5.33;;
16673;SDS011;8450;52.654;10.326;2023-12-20T03:13:37;14.53;;;4.07;;
16673;SDS011;8450;52.654;10.326;2023-12-20T03:16:11;9.07;;;3.77;;
16673;SDS011;8450;52.654;10.326;2023-12-20T03:18:37;13.53;;;4.97;;
16673;SDS011;8450;52.654;10.326;2023-12-20T03:21:04;16.97;;;3.83;;
16673;SDS011;8450;52.654;10.326;2023-12-20T03:23:30;7.70;;;3.60;;
16673;SDS011;8450;52.654;10.326;2023-12-20T03:25:57;12.70;;;4.50;;
16673;SDS011;8450;52.654;10.326;2023-12-20T03:28:23;9.90;;;3.47;;
16673;SDS011;8450;52.654;10.326;2023-12-20T03:30:49;16.57;;;3.80;;
16673;SDS011;8450;52.654;10.326;2023-12-20T03:33:14;11.30;;;3.97;;
16673;SDS011;8450;52.654;10.326;2023-12-20T03:35:40;11.87;;;3.83;;
16673;SDS011;8450;52.654;10.326;2023-12-20T03:38:06;8.60;;;3.77;;
16673;SDS011;8450;52.654;10.326;2023-12-20T03:40:31;6.30;;;3.03;;
16673;SDS011;8450;52.654;10.326;2023-12-20T03:42:57;13.33;;;3.77;;
16673;SDS011;8450;52.654;10.326;2023-12-20T03:45:22;7.90;;;3.60;;
16673;SDS011;8450;52.654;10.326;2023-12-20T03:47:48;15.00;;;3.17;;
16673;SDS011;8450;52.654;10.326;2023-12-20T03:50:14;16.80;;;4.47;;
16673;SDS011;8450;52.654;10.326;2023-12-20T03:52:40;10.70;;;3.53;;
16673;SDS011;8450;52.654;10.326;2023-12-20T03:55:05;9.37;;;3.10;;
16673;SDS011;8450;52.654;10.326;2023-12-20T03:57:31;12.07;;;3.40;;
16673;SDS011;8450;52.654;10.326;2023-12-20T03:59:57;4.57;;;2.50;;
16673;SDS011;8450;52.654;10.326;2023-12-20T04:02:22;15.87;;;3.37;;
16673;SDS011;8450;52.654;10.326;2023-12-20T04:04:48;6.00;;;2.87;;
16673;SDS011;8450;52.654;10.326;2023-12-20T04:07:13;11.07;;;3.63;;
16673;SDS011;8450;52.654;10.326;2023-12-20T04:09:40;11.93;;;3.47;;
16673;SDS011;8450;52.654;10.326;2023-12-20T04:12:06;13.33;;;2.80;;
16673;SDS011;8450;52.654;10.326;2023-12-20T04:14:32;16.80;;;3.33;;
16673;SDS011;8450;52.654;10.326;2023-12-20T04:16:57;12.27;;;3.93;;
16673;SDS011;8450;52.654;10.326;2023-12-20T04:19:23;14.43;;;3.70;;
16673;SDS011;8450;52.654;10.326;2023-12-20T04:21:49;12.63;;;4.47;;
16673;SDS011;8450;52.654;10.326;2023-12-20T04:24:14;7.60;;;3.10;;
16673;SDS011;8450;52.654;10.326;2023-12-20T04:26:40;7.63;;;3.10;;
16673;SDS011;8450;52.654;10.326;2023-12-20T04:29:05;17.43;;;4.77;;
16673;SDS011;8450;52.654;10.326;2023-12-20T04:31:31;9.57;;;4.27;;
16673;SDS011;8450;52.654;10.326;2023-12-20T04:33:56;6.03;;;2.83;;
16673;SDS011;8450;52.654;10.326;2023-12-20T04:36:22;11.00;;;4.37;;
16673;SDS011;8450;52.654;10.326;2023-12-20T04:38:48;7.43;;;3.77;;
16673;SDS011;8450;52.654;10.326;2023-12-20T04:41:13;12.23;;;3.73;;
16673;SDS011;8450;52.654;10.326;2023-12-20T04:43:43;13.63;;;4.47;;
16673;SDS011;8450;52.654;10.326;2023-12-20T04:46:09;12.43;;;4.43;;
16673;SDS011;8450;52.654;10.326;2023-12-20T04:48:34;11.47;;;5.10;;
16673;SDS011;8450;52.654;10.326;2023-12-20T04:51:00;12.10;;;4.33;;
16673;SDS011;8450;52.654;10.326;2023-12-20T04:53:26;14.27;;;5.00;;
16673;SDS011;8450;52.654;10.326;2023-12-20T04:55:52;8.60;;;3.63;;
16673;SDS011;8450;52.654;10.326;2023-12-20T04:58:18;11.20;;;5.03;;
16673;SDS011;8450;52.654;10.326;2023-12-20T05:00:44;13.53;;;4.13;;
16673;SDS011;8450;52.654;10.326;2023-12-20T05:03:09;11.13;;;3.10;;
16673;SDS011;8450;52.654;10.326;2023-12-20T05:05:35;12.87;;;3.63;;
16673;SDS011;8450;52.654;10.326;2023-12-20T05:08:01;19.73;;;3.73;;
16673;SDS011;8450;52.654;10.326;2023-12-20T05:10:26;8.13;;;3.27;;
16673;SDS011;8450;52.654;10.326;2023-12-20T05:12:52;17.20;;;5.30;;
16673;SDS011;8450;52.654;10.326;2023-12-20T05:15:18;13.13;;;4.90;;
16673;SDS011;8450;52.654;10.326;2023-12-20T05:17:44;15.03;;;4.50;;
16673;SDS011;8450;52.654;10.326;2023-12-20T05:20:09;12.00;;;3.90;;
16673;SDS011;8450;52.654;10.326;2023-12-20T05:22:35;9.90;;;3.90;;
16673;SDS011;8450;52.654;10.326;2023-12-20T05:25:01;11.30;;;4.53;;
16673;SDS011;8450;52.654;10.326;2023-12-20T05:27:26;16.10;;;4.97;;
16673;SDS011;8450;52.654;10.326;2023-12-20T05:29:52;5.30;;;2.80;;
16673;SDS011;8450;52.654;10.326;2023-12-20T05:32:17;15.33;;;3.77;;
16673;SDS011;8450;52.654;10.326;2023-12-20T05:34:43;13.40;;;4.60;;
16673;SDS011;8450;52.654;10.326;2023-12-20T05:37:08;13.03;;;4.00;;
16673;SDS011;8450;52.654;10.326;2023-12-20T05:39:43;16.73;;;4.80;;
16673;SDS011;8450;52.654;10.326;2023-12-20T05:42:08;9.43;;;3.97;;
16673;SDS011;8450;52.654;10.326;2023-12-20T05:44:34;15.13;;;4.20;;
16673;SDS011;8450;52.654;10.326;2023-12-20T05:46:59;14.10;;;4.37;;
16673;SDS011;8450;52.654;10.326;2023-12-20T05:49:25;12.47;;;3.87;;
16673;SDS011;8450;52.654;10.326;2023-12-20T05:51:50;11.07;;;4.67;;
16673;SDS011;8450;52.654;10.326;2023-12-20T05:54:16;10.73;;;5.07;;
16673;SDS011;8450;52.654;10.326;2023-12-20T05:56:41;17.17;;;5.67;;
16673;SDS011;8450;52.654;10.326;2023-12-20T05:59:07;8.90;;;3.90;;
16673;SDS011;8450;52.654;10.326;2023-12-20T06:01:33;10.63;;;4.20;;
16673;SDS011;8450;52.654;10.326;2023-12-20T06:03:58;13.73;;;3.93;;
16673;SDS011;8450;52.654;10.326;2023-12-20T06:06:24;13.17;;;4.57;;
16673;SDS011;8450;52.654;10.326;2023-12-20T06:08:49;14.53;;;4.20;;
16673;SDS011;8450;52.654;10.326;2023-12-20T06:11:15;13.87;;;3.90;;
16673;SDS011;8450;52.654;10.326;2023-12-20T06:13:40;13.57;;;4.17;;
16673;SDS011;8450;52.654;10.326;2023-12-20T06:16:06;10.90;;;3.80;;
16673;SDS011;8450;52.654;10.326;2023-12-20T06:18:32;13.30;;;3.67;;
16673;SDS011;8450;52.654;10.326;2023-12-20T06:20:58;9.80;;;4.30;;
16673;SDS011;8450;52.654;10.326;2023-12-20T06:23:23;16.67;;;5.20;;
16673;SDS011;8450;52.654;10.326;2023-12-20T06:25:49;10.60;;;3.90;;
16673;SDS011;8450;52.654;10.326;2023-12-20T06:28:14;18.77;;;5.13;;
16673;SDS011;8450;52.654;10.326;2023-12-20T06:30:40;11.43;;;4.80;;
16673;SDS011;8450;52.654;10.326;2023-12-20T06:33:06;6.87;;;3.70;;
16673;SDS011;8450;52.654;10.326;2023-12-20T06:35:32;14.00;;;3.90;;
16673;SDS011;8450;52.654;10.326;2023-12-20T06:37:57;16.80;;;4.90;;
16673;SDS011;8450;52.654;10.326;2023-12-20T06:40:23;9.17;;;3.63;;
16673;SDS011;8450;52.654;10.326;2023-12-20T06:42:49;13.40;;;4.30;;
16673;SDS011;8450;52.654;10.326;2023-12-20T06:45:14;15.10;;;3.73;;
16673;SDS011;8450;52.654;10.326;2023-12-20T06:47:40;10.97;;;3.33;;
16673;SDS011;8450;52.654;10.326;2023-12-20T06:50:05;11.17;;;4.73;;
16673;SDS011;8450;52.654;10.326;2023-12-20T06:52:33;7.10;;;3.40;;
16673;SDS011;8450;52.654;10.326;2023-12-20T06:54:59;21.37;;;5.07;;
16673;SDS011;8450;52.654;10.326;2023-12-20T06:57:25;16.83;;;4.37;;
16673;SDS011;8450;52.654;10.326;2023-12-20T06:59:51;11.43;;;4.50;;
16673;SDS011;8450;52.654;10.326;2023-12-20T07:02:17;9.83;;;4.60;;
16673;SDS011;8450;52.654;10.326;2023-12-20T07:04:43;10.57;;;3.77;;
16673;SDS011;8450;52.654;10.326;2023-12-20T07:07:09;19.63;;;5.83;;
16673;SDS011;8450;52.654;10.326;2023-12-20T07:09:34;11.17;;;3.30;;
16673;SDS011;8450;52.654;10.326;2023-12-20T07:12:00;12.57;;;3.63;;
16673;SDS011;8450;52.654;10.326;2023-12-20T07:14:25;13.50;;;4.00;;
16673;SDS011;8450;52.654;10.326;2023-12-20T07:16:51;14.33;;;4.87;;
16673;SDS011;8450;52.654;10.326;2023-12-20T07:19:16;16.90;;;4.77;;
16673;SDS011;8450;52.654;10.326;2023-12-20T07:21:42;12.43;;;4.47;;
16673;SDS011;8450;52.654;10.326;2023-12-20T07:24:08;11.77;;;4.33;;
16673;SDS011;8450;52.654;10.326;2023-12-20T07:26:34;10.67;;;4.10;;
16673;SDS011;8450;52.654;10.326;2023-12-20T07:29:00;15.23;;;4.83;;
16673;SDS011;8450;52.654;10.326;2023-12-20T07:31:25;13.43;;;4.97;;
16673;SDS011;8450;52.654;10.326;2023-12-20T07:33:51;10.83;;;3.83;;
16673;SDS011;8450;52.654;10.326;2023-12-20T07:36:16;18.73;;;4.07;;
16673;SDS011;8450;52.654;10.326;2023-12-20T07:38:42;12.10;;;3.80;;
16673;SDS011;8450;52.654;10.326;2023-12-20T07:41:12;14.77;;;4.97;;
16673;SDS011;8450;52.654;10.326;2023-12-20T07:43:38;11.70;;;4.23;;
16673;SDS011;8450;52.654;10.326;2023-12-20T07:46:04;16.10;;;5.17;;
16673;SDS011;8450;52.654;10.326;2023-12-20T07:48:36;15.97;;;4.57;;
16673;SDS011;8450;52.654;10.326;2023-12-20T07:51:03;15.80;;;3.97;;
16673;SDS011;8450;52.654;10.326;2023-12-20T07:53:29;13.97;;;3.83;;
16673;SDS011;8450;52.654;10.326;2023-12-20T07:55:55;14.30;;;3.90;;
16673;SDS011;8450;52.654;10.326;2023-12-20T07:58:20;11.43;;;3.97;;
16673;SDS011;8450;52.654;10.326;2023-12-20T08:00:47;14.60;;;4.27;;
16673;SDS011;8450;52.654;10.326;2023-12-20T08:03:12;11.87;;;3.53;;
16673;SDS011;8450;52.654;10.326;2023-12-20T08:05:38;12.13;;;4.10;;
16673;SDS011;8450;52.654;10.326;2023-12-20T08:08:05;8.70;;;4.57;;
16673;SDS011;8450;52.654;10.326;2023-12-20T08:10:31;18.53;;;4.03;;
16673;SDS011;8450;52.654;10.326;2023-12-20T08:12:57;16.20;;;4.77;;
16673;SDS011;8450;52.654;10.326;2023-12-20T08:15:22;10.60;;;4.17;;
16673;SDS011;8450;52.654;10.326;2023-12-20T08:17:48;9.03;;;3.27;;
16673;SDS011;8450;52.654;10.326;2023-12-20T08:20:16;16.17;;;4.53;;
16673;SDS011;8450;52.654;10.326;2023-12-20T08:22:41;6.70;;;2.60;;
16673;SDS011;8450;52.654;10.326;2023-12-20T08:25:07;9.10;;;4.00;;
16673;SDS011;8450;52.654;10.326;2023-12-20T08:27:33;11.37;;;4.17;;
16673;SDS011;8450;52.654;10.326;2023-12-20T08:30:06;15.83;;;3.53;;
16673;SDS011;8450;52.654;10.326;2023-12-20T08:32:33;14.13;;;5.20;;
16673;SDS011;8450;52.654;10.326;2023-12-20T08:34:59;14.33;;;3.10;;
16673;SDS011;8450;52.654;10.326;2023-12-20T08:37:24;15.30;;;4.13;;
16673;SDS011;8450;52.654;10.326;2023-12-20T08:39:50;13.80;;;3.73;;
16673;SDS011;8450;52.654;10.326;2023-12-20T08:42:16;10.73;;;3.73;;
16673;SDS011;8450;52.654;10.326;2023-12-20T08:44:41;16.27;;;3.90;;
16673;SDS011;8450;52.654;10.326;2023-12-20T08:47:07;15.10;;;4.57;;
16673;SDS011;8450;52.654;10.326;2023-12-20T08:49:32;5.67;;;2.73;;
16673;SDS011;8450;52.654;10.326;2023-12-20T08:51:58;16.30;;;5.27;;
16673;SDS011;8450;52.654;10.326;2023-12-20T08:54:23;8.07;;;3.70;;
16673;SDS011;8450;52.654;10.326;2023-12-20T08:56:49;8.70;;;3.57;;
16673;SDS011;8450;52.654;10.326;2023-12-20T08:59:15;16.93;;;4.23;;
16673;SDS011;8450;52.654;10.326;2023-12-20T09:01:40;16.93;;;4.00;;
16673;SDS011;8450;52.654;10.326;2023-12-20T09:04:06;10.83;;;3.60;;
16673;SDS011;8450;52.654;10.326;2023-12-20T09:06:31;12.03;;;3.20;;
16673;SDS011;8450;52.654;10.326;2023-12-20T09:08:57;11.90;;;4.20;;
16673;SDS011;8450;52.654;10.326;2023-12-20T09:11:22;8.43;;;3.33;;
16673;SDS011;8450;52.654;10.326;2023-12-20T09:13:48;15.07;;;4.43;;
16673;SDS011;8450;52.654;10.326;2023-12-20T09:16:14;10.17;;;4.27;;
16673;SDS011;8450;52.654;10.326;2023-12-20T09:18:41;8.60;;;4.50;;
16673;SDS011;8450;52.654;10.326;2023-12-20T09:21:07;12.30;;;3.63;;
16673;SDS011;8450;52.654;10.326;2023-12-20T09:23:32;9.83;;;3.83;;
16673;SDS011;8450;52.654;10.326;2023-12-20T09:25:58;10.07;;;4.03;;
16673;SDS011;8450;52.654;10.326;2023-12-20T09:28:23;10.37;;;4.80;;
16673;SDS011;8450;52.654;10.326;2023-12-20T09:30:49;12.80;;;4.10;;
16673;SDS011;8450;52.654;10.326;2023-12-20T09:33:15;7.83;;;3.43;;
16673;SDS011;8450;52.654;10.326;2023-12-20T09:35:41;16.60;;;4.60;;
16673;SDS011;8450;52.654;10.326;2023-12-20T09:38:07;9.67;;;4.77;;
16673;SDS011;8450;52.654;10.326;2023-12-20T09:40:33;17.50;;;4.83;;
16673;SDS011;8450;52.654;10.326;2023-12-20T09:43:05;11.10;;;4.73;;
16673;SDS011;8450;52.654;10.326;2023-12-20T09:45:35;10.47;;;4.50;;
16673;SDS011;8450;52.654;10.326;2023-12-20T09:48:02;19.73;;;5.23;;
16673;SDS011;8450;52.654;10.326;2023-12-20T09:50:30;13.97;;;4.43;;
16673;SDS011;8450;52.654;10.326;2023-12-20T09:52:57;12.80;;;4.00;;
16673;SDS011;8450;52.654;10.326;2023-12-20T09:55:25;15.93;;;4.60;;
16673;SDS011;8450;52.654;10.326;2023-12-20T09:57:54;14.93;;;4.60;;
16673;SDS011;8450;52.654;10.326;2023-12-20T10:00:20;16.33;;;5.03;;
16673;SDS011;8450;52.654;10.326;2023-12-20T10:02:49;14.50;;;3.93;;
16673;SDS011;8450;52.654;10.326;2023-12-20T10:05:21;10.33;;;4.50;;
16673;SDS011;8450;52.654;10.326;2023-12-20T10:07:53;6.33;;;3.33;;
16673;SDS011;8450;52.654;10.326;2023-12-20T10:10:18;15.93;;;4.40;;
16673;SDS011;8450;52.654;10.326;2023-12-20T10:15:36;7.80;;;3.63;;
16673;SDS011;8450;52.654;10.326;2023-12-20T10:18:02;13.13;;;4.93;;
16673;SDS011;8450;52.654;10.326;2023-12-20T10:20:29;15.07;;;4.80;;
16673;SDS011;8450;52.654;10.326;2023-12-20T10:22:56;8.97;;;4.03;;
16673;SDS011;8450;52.654;10.326;2023-12-20T10:25:25;19.00;;;5.10;;
16673;SDS011;8450;52.654;10.326;2023-12-20T10:30:38;8.93;;;3.77;;
16673;SDS011;8450;52.654;10.326;2023-12-20T10:33:05;10.77;;;3.40;;
16673;SDS011;8450;52.654;10.326;2023-12-20T10:35:32;13.27;;;4.10;;
16673;SDS011;8450;52.654;10.326;2023-12-20T10:37:57;17.70;;;4.63;;
16673;SDS011;8450;52.654;10.326;2023-12-20T10:40:26;9.20;;;3.43;;
16673;SDS011;8450;52.654;10.326;2023-12-20T10:42:54;11.97;;;4.70;;
16673;SDS011;8450;52.654;10.326;2023-12-20T10:45:21;11.63;;;3.53;;
16673;SDS011;8450;52.654;10.326;2023-12-20T10:47:47;9.47;;;4.27;;
16673;SDS011;8450;52.654;10.326;2023-12-20T10:50:15;14.77;;;4.00;;
16673;SDS011;8450;52.654;10.326;2023-12-20T10:52:40;13.30;;;3.70;;
16673;SDS011;8450;52.654;10.326;2023-12-20T10:55:07;11.67;;;3.70;;
16673;SDS011;8450;52.654;10.326;2023-12-20T10:57:34;17.47;;;5.13;;
16673;SDS011;8450;52.654;10.326;2023-12-20T11:00:01;13.37;;;4.23;;
16673;SDS011;8450;52.654;10.326;2023-12-20T11:02:29;7.03;;;3.67;;
16673;SDS011;8450;52.654;10.326;2023-12-20T11:07:55;7.30;;;3.10;;
16673;SDS011;8450;52.654;10.326;2023-12-20T11:10:42;10.13;;;4.57;;
16673;SDS011;8450;52.654;10.326;2023-12-20T11:13:20;10.13;;;3.57;;
16673;SDS011;8450;52.654;10.326;2023-12-20T11:15:50;11.23;;;4.80;;
16673;SDS011;8450;52.654;10.326;2023-12-20T11:18:16;11.00;;;3.37;;
16673;SDS011;8450;52.654;10.326;2023-12-20T11:20:42;12.70;;;4.53;;
16673;SDS011;8450;52.654;10.326;2023-12-20T11:23:08;12.33;;;3.53;;
16673;SDS011;8450;52.654;10.326;2023-12-20T11:25:53;8.63;;;3.27;;
16673;SDS011;8450;52.654;10.326;2023-12-20T11:28:23;14.57;;;3.83;;
16673;SDS011;8450;52.654;10.326;2023-12-20T11:31:00;5.07;;;2.43;;
16673;SDS011;8450;52.654;10.326;2023-12-20T11:33:29;7.13;;;2.80;;
16673;SDS011;8450;52.654;10.326;2023-12-20T11:35:56;3.00;;;1.60;;
16673;SDS011;8450;52.654;10.326;2023-12-20T11:38:22;2.83;;;1.23;;
16673;SDS011;8450;52.654;10.326;2023-12-20T11:40:49;1.10;;;1.00;;
16673;SDS011;8450;52.654;10.326;2023-12-20T11:43:30;4.57;;;1.60;;
16673;SDS011;8450;52.654;10.326;2023-12-20T11:46:06;1.67;;;1.10;;
16673;SDS011;8450;52.654;10.326;2023-12-20T11:48:39;2.40;;;1.23;;
16673;SDS011;8450;52.654;10.326;2023-12-20T11:51:11;4.83;;;1.67;;
16673;SDS011;8450;52.654;10.326;2023-12-20T11:53:37;2.97;;;1.70;;
16673;SDS011;8450;52.654;10.326;2023-12-20T11:56:05;2.13;;;1.10;;
16673;SDS011;8450;52.654;10.326;2023-12-20T11:58:31;1.13;;;0.83;;
16673;SDS011;8450;52.654;10.326;2023-12-20T12:00:57;3.70;;;1.43;;
16673;SDS011;8450;52.654;10.326;2023-12-20T12:03:23;1.53;;;1.43;;
16673;SDS011;8450;52.654;10.326;2023-12-20T12:05:49;1.23;;;1.13;;
16673;SDS011;8450;52.654;10.326;2023-12-20T12:08:15;0.70;;;0.70;;
16673;SDS011;8450;52.654;10.326;2023-12-20T12:10:41;2.60;;;1.10;;
16673;SDS011;8450;52.654;10.326;2023-12-20T12:13:07;1.77;;;1.20;;
16673;SDS011;8450;52.654;10.326;2023-12-20T12:15:32;4.40;;;1.20;;
16673;SDS011;8450;52.654;10.326;2023-12-20T12:17:58;2.73;;;1.33;;
16673;SDS011;8450;52.654;10.326;2023-12-20T12:20:24;3.57;;;1.27;;
16673;SDS011;8450;52.654;10.326;2023-12-20T12:23:03;1.53;;;1.23;;
16673;SDS011;8450;52.654;10.326;2023-12-20T12:25:30;1.67;;;1.40;;
16673;SDS011;8450;52.654;10.326;2023-12-20T12:27:56;2.23;;;1.30;;
16673;SDS011;8450;52.654;10.326;2023-12-20T12:30:23;2.83;;;1.60;;
16673;SDS011;8450;52.654;10.326;2023-12-20T12:32:48;1.80;;;1.33;;
16673;SDS011;8450;52.654;10.326;2023-12-20T12:35:16;3.23;;;1.30;;
16673;SDS011;8450;52.654;10.326;2023-12-20T12:37:41;4.53;;;1.10;;
16673;SDS011;8450;52.654;10.326;2023-12-20T12:40:09;4.93;;;2.13;;
16673;SDS011;8450;52.654;10.326;2023-12-20T12:42:36;1.73;;;1.10;;
16673;SDS011;8450;52.654;10.326;2023-12-20T12:45:05;3.83;;;1.73;;
16673;SDS011;8450;52.654;10.326;2023-12-20T12:47:31;1.63;;;1.17;;
16673;SDS011;8450;52.654;10.326;2023-12-20T12:49:58;4.83;;;1.70;;
16673;SDS011;8450;52.654;10.326;2023-12-20T12:52:23;2.37;;;1.53;;
16673;SDS011;8450;52.654;10.326;2023-12-20T12:54:49;3.37;;;1.87;;
16673;SDS011;8450;52.654;10.326;2023-12-20T12:57:14;4.30;;;1.30;;
16673;SDS011;8450;52.654;10.326;2023-12-20T12:59:43;4.73;;;1.30;;
16673;SDS011;8450;52.654;10.326;2023-12-20T13:02:11;5.50;;;1.83;;
16673;SDS011;8450;52.654;10.326;2023-12-20T13:04:38;4.90;;;1.83;;
16673;SDS011;8450;52.654;10.326;2023-12-20T13:07:04;5.00;;;2.00;;
16673;SDS011;8450;52.654;10.326;2023-12-20T13:09:30;5.63;;;1.30;;
16673;SDS011;8450;52.654;10.326;2023-12-20T13:11:56;6.07;;;2.20;;
16673;SDS011;8450;52.654;10.326;2023-12-20T13:14:21;4.13;;;1.70;;
16673;SDS011;8450;52.654;10.326;2023-12-20T13:16:47;2.47;;;1.43;;
16673;SDS011;8450;52.654;10.326;2023-12-20T13:19:13;4.67;;;1.70;;
16673;SDS011;8450;52.654;10.326;2023-12-20T13:21:38;4.70;;;1.50;;
16673;SDS011;8450;52.654;10.326;2023-12-20T13:24:04;5.70;;;1.90;;
16673;SDS011;8450;52.654;10.326;2023-12-20T13:26:30;5.13;;;2.73;;
16673;SDS011;8450;52.654;10.326;2023-12-20T13:28:56;5.93;;;1.57;;
16673;SDS011;8450;52.654;10.326;2023-12-20T13:31:21;8.00;;;2.37;;
16673;SDS011;8450;52.654;10.326;2023-12-20T13:33:47;7.30;;;1.87;;
16673;SDS011;8450;52.654;10.326;2023-12-20T13:36:12;4.57;;;1.73;;
16673;SDS011;8450;52.654;10.326;2023-12-20T13:38:38;7.17;;;1.90;;
16673;SDS011;8450;52.654;10.326;2023-12-20T13:41:04;7.63;;;1.60;;
16673;SDS011;8450;52.654;10.326;2023-12-20T13:43:30;5.73;;;1.77;;
16673;SDS011;8450;52.654;10.326;2023-12-20T13:45:57;7.70;;;1.90;;
16673;SDS011;8450;52.654;10.326;2023-12-20T13:48:23;4.40;;;1.87;;
16673;SDS011;8450;52.654;10.326;2023-12-20T13:50:49;5.33;;;1.80;;
16673;SDS011;8450;52.654;10.326;2023-12-20T13:53:14;5.50;;;1.53;;
16673;SDS011;8450;52.654;10.326;2023-12-20T13:55:40;4.70;;;1.70;;
16673;SDS011;8450;52.654;10.326;2023-12-20T13:58:06;8.67;;;2.10;;
16673;SDS011;8450;52.654;10.326;2023-12-20T14:00:31;4.33;;;1.57;;
16673;SDS011;8450;52.654;10.326;2023-12-20T14:02:57;5.03;;;1.90;;
16673;SDS011;8450;52.654;10.326;2023-12-20T14:05:23;7.70;;;2.60;;
16673;SDS011;8450;52.654;10.326;2023-12-20T14:07:49;9.77;;;2.07;;
16673;SDS011;8450;52.654;10.326;2023-12-20T14:10:15;5.00;;;1.70;;
16673;SDS011;8450;52.654;10.326;2023-12-20T14:12:41;6.13;;;2.07;;
16673;SDS011;8450;52.654;10.326;2023-12-20T14:15:07;5.80;;;2.20;;
16673;SDS011;8450;52.654;10.326;2023-12-20T14:17:39;3.23;;;1.90;;
16673;SDS011;8450;52.654;10.326;2023-12-20T14:20:07;3.27;;;1.40;;
16673;SDS011;8450;52.654;10.326;2023-12-20T14:22:34;4.43;;;1.77;;
16673;SDS011;8450;52.654;10.326;2023-12-20T14:25:00;6.53;;;2.27;;
16673;SDS011;8450;52.654;10.326;2023-12-20T14:27:26;8.70;;;2.43;;
16673;SDS011;8450;52.654;10.326;2023-12-20T14:29:53;12.33;;;2.70;;
16673;SDS011;8450;52.654;10.326;2023-12-20T14:32:19;4.27;;;1.83;;
16673;SDS011;8450;52.654;10.326;2023-12-20T14:34:45;4.83;;;1.60;;
16673;SDS011;8450;52.654;10.326;2023-12-20T14:37:11;6.57;;;1.57;;
16673;SDS011;8450;52.654;10.326;2023-12-20T14:39:36;5.20;;;1.90;;
16673;SDS011;8450;52.654;10.326;2023-12-20T14:42:07;7.10;;;1.70;;
16673;SDS011;8450;52.654;10.326;2023-12-20T14:44:37;9.03;;;3.07;;